Time;durP1;ratioP1;P1;durP2;ratioP2;P2;SDS_P1;SDS_P2;PMS_P1;PMS_P2;Temp;Humidity;BMP_temperature;BMP_pressure;BME280_temperature;BME280_humidity;BME280_pressure;Samples;Min_cycle;Max_cycle;Signal;HPM_P1;HPM_P2
2023/01/29 00:01:24;;;;;;;1060.97;967.30;;;3.30;99.90;;;;;;5071620;28;20383;-61
2023/01/29 00:03:51;;;;;;;1053.25;962.65;;;3.40;99.90;;;;;;5069265;28;20430;-61
2023/01/29 00:06:17;;;;;;;1057.57;967.47;;;3.40;99.90;;;;;;5069371;28;20468;-60
2023/01/29 00:08:42;;;;;;;1054.70;966.30;;;3.50;99.90;;;;;;5070017;28;20384;-59
2023/01/29 00:11:09;;;;;;;1043.00;953.33;;;3.50;99.90;;;;;;5071846;28;20394;-60
2023/01/29 00:13:34;;;;;;;1055.03;964.60;;;3.50;99.90;;;;;;5072301;28;20478;-60
2023/01/29 00:16:01;;;;;;;1076.13;982.03;;;3.40;99.90;;;;;;5071954;28;20441;-61
2023/01/29 00:18:27;;;;;;;1077.83;982.70;;;3.40;99.90;;;;;;5071719;28;20453;-60
2023/01/29 00:20:53;;;;;;;1064.53;971.33;;;3.40;99.90;;;;;;5071982;28;20494;-61
2023/01/29 00:23:18;;;;;;;1072.90;979.42;;;3.30;99.90;;;;;;5070403;28;20392;-60
2023/01/29 00:25:44;;;;;;;1054.35;962.53;;;3.30;99.90;;;;;;5071100;28;20399;-61
2023/01/29 00:28:11;;;;;;;1053.57;962.22;;;3.30;99.90;;;;;;5070506;28;20391;-61
2023/01/29 00:30:37;;;;;;;1060.50;967.95;;;3.30;99.90;;;;;;5073072;28;20433;-61
2023/01/29 00:33:03;;;;;;;1068.70;974.67;;;3.30;99.90;;;;;;5070466;28;20418;-61
2023/01/29 00:35:30;;;;;;;1090.68;992.22;;;3.40;99.90;;;;;;5069747;28;20429;-60
2023/01/29 00:37:56;;;;;;;1044.50;954.85;;;3.30;99.90;;;;;;5070588;28;20395;-61
2023/01/29 00:40:22;;;;;;;1020.20;935.65;;;3.30;99.90;;;;;;5070154;28;20918;-61
2023/01/29 00:45:33;;;;;;;1032.18;948.65;;;3.20;99.90;;;;;;5072061;28;20434;-60
2023/01/29 00:47:58;;;;;;;1039.03;953.28;;;3.20;99.90;;;;;;5069681;28;20804;-60
2023/01/29 00:50:26;;;;;;;1035.10;951.47;;;3.30;99.90;;;;;;5069191;28;21293;-61
2023/01/29 00:52:53;;;;;;;1037.50;952.15;;;3.30;99.90;;;;;;5070201;28;20717;-60
2023/01/29 00:55:19;;;;;;;1040.47;954.92;;;3.30;99.90;;;;;;5067829;28;20371;-61
2023/01/29 00:57:45;;;;;;;1064.57;975.63;;;3.40;99.90;;;;;;5069691;28;21005;-61
2023/01/29 01:00:15;;;;;;;1049.63;963.55;;;3.30;99.90;;;;;;5068809;28;20411;-61
2023/01/29 01:05:25;;;;;;;1038.45;949.60;;;3.40;99.90;;;;;;5068774;28;20690;-61
2023/01/29 01:07:53;;;;;;;1022.90;935.67;;;3.50;99.90;;;;;;5068278;28;20798;-61
2023/01/29 01:10:23;;;;;;;1032.70;942.80;;;3.40;99.90;;;;;;5068037;28;20388;-60
2023/01/29 01:12:53;;;;;;;1026.32;938.65;;;3.50;99.90;;;;;;5066961;28;20661;-61
2023/01/29 01:15:19;;;;;;;1030.00;939.80;;;3.50;99.90;;;;;;5067780;28;20396;-61
2023/01/29 01:17:47;;;;;;;1067.78;973.67;;;3.50;99.90;;;;;;5069885;28;20410;-61
2023/01/29 01:20:13;;;;;;;1072.80;979.47;;;3.50;99.90;;;;;;5072760;28;20383;-61
2023/01/29 01:22:39;;;;;;;1084.97;990.90;;;3.40;99.90;;;;;;5075286;28;20781;-61
2023/01/29 01:25:05;;;;;;;1104.18;999.90;;;3.50;99.90;;;;;;5074608;28;20392;-60
2023/01/29 01:27:31;;;;;;;1096.57;998.03;;;3.50;99.90;;;;;;5076653;28;20380;-60
2023/01/29 01:29:56;;;;;;;1106.90;999.90;;;3.50;99.90;;;;;;5077120;28;20481;-59
2023/01/29 01:32:22;;;;;;;1091.82;993.25;;;3.50;99.90;;;;;;5075253;28;20445;-61
2023/01/29 01:34:47;;;;;;;1087.68;990.75;;;3.50;99.90;;;;;;5074905;28;20431;-61
2023/01/29 01:37:13;;;;;;;1084.00;988.30;;;3.50;99.90;;;;;;5076428;28;20414;-61
2023/01/29 01:39:39;;;;;;;1092.33;996.10;;;3.50;99.90;;;;;;5075156;28;20882;-62
2023/01/29 01:42:11;;;;;;;1109.03;999.90;;;3.50;99.90;;;;;;5076054;28;20383;-61
2023/01/29 01:44:55;;;;;;;1108.55;999.90;;;3.60;99.90;;;;;;5076904;28;20407;-61
2023/01/29 01:47:29;;;;;;;1112.05;999.90;;;3.60;99.90;;;;;;5075930;28;20404;-63
2023/01/29 01:50:01;;;;;;;1115.57;999.90;;;3.60;99.90;;;;;;5075280;28;20429;-60
2023/01/29 01:52:29;;;;;;;1113.82;999.90;;;3.60;99.90;;;;;;5074670;28;20384;-61
2023/01/29 01:54:56;;;;;;;1119.72;999.90;;;3.70;99.90;;;;;;5074243;28;20474;-60
2023/01/29 01:57:24;;;;;;;1117.03;999.90;;;3.70;99.90;;;;;;5074093;28;21039;-61
2023/01/29 02:00:02;;;;;;;1098.13;998.78;;;3.70;99.90;;;;;;5073665;28;20486;-59
2023/01/29 02:10:47;;;;;;;1112.15;999.90;;;3.70;99.90;;;;;;5072919;28;20430;-60
2023/01/29 02:13:16;;;;;;;1109.50;999.90;;;3.60;99.90;;;;;;5071282;28;20384;-58
2023/01/29 02:15:47;;;;;;;1118.55;999.90;;;3.70;99.90;;;;;;5071662;28;20395;-59
2023/01/29 02:18:15;;;;;;;1070.85;977.70;;;3.60;99.90;;;;;;5070538;28;20438;-59
2023/01/29 02:20:47;;;;;;;1058.85;967.45;;;3.60;99.90;;;;;;5070005;28;20646;-58
2023/01/29 02:23:22;;;;;;;1013.63;928.70;;;3.60;99.90;;;;;;5067456;28;20873;-59
2023/01/29 02:26:32;;;;;;;1040.63;953.20;;;3.60;99.90;;;;;;5067811;28;20528;-59
2023/01/29 02:29:26;;;;;;;1029.20;940.92;;;3.60;99.90;;;;;;5068200;28;20675;-59
2023/01/29 02:31:57;;;;;;;1058.73;967.60;;;3.70;99.90;;;;;;5070814;28;20747;-59
2023/01/29 02:37:43;;;;;;;1081.40;985.58;;;3.60;99.90;;;;;;5075110;28;20374;-59
2023/01/29 02:40:26;;;;;;;1087.13;992.60;;;3.70;99.90;;;;;;5073497;28;20376;-59
2023/01/29 02:43:05;;;;;;;1114.10;999.90;;;3.60;99.90;;;;;;5073879;28;20449;-59
2023/01/29 02:45:59;;;;;;;1114.63;999.90;;;3.60;99.90;;;;;;5072490;28;20685;-59
2023/01/29 02:48:33;;;;;;;1057.28;966.72;;;3.60;99.90;;;;;;5072567;28;20396;-59
2023/01/29 02:51:04;;;;;;;1054.28;964.17;;;3.60;99.90;;;;;;5071841;28;20387;-59
2023/01/29 02:53:50;;;;;;;1068.18;976.75;;;3.60;99.90;;;;;;5072227;28;20380;-59
2023/01/29 02:56:45;;;;;;;1043.82;956.00;;;3.60;99.90;;;;;;5072324;28;20392;-60
2023/01/29 02:59:32;;;;;;;1050.05;958.92;;;3.60;99.90;;;;;;5071591;28;20403;-59
2023/01/29 03:02:05;;;;;;;1096.53;999.03;;;3.60;99.90;;;;;;5072360;28;20830;-58
2023/01/29 03:04:41;;;;;;;1050.30;960.80;;;3.60;99.90;;;;;;5071304;28;20453;-59
2023/01/29 03:07:21;;;;;;;1073.22;980.30;;;3.60;99.90;;;;;;5071050;28;20405;-58
2023/01/29 03:09:51;;;;;;;1074.70;978.70;;;3.70;99.90;;;;;;5070142;28;20821;-59
2023/01/29 03:12:32;;;;;;;1075.15;982.58;;;3.60;99.90;;;;;;5069704;28;20395;-59
2023/01/29 03:15:10;;;;;;;1065.85;975.03;;;3.60;99.90;;;;;;5068273;28;21040;-58
2023/01/29 03:17:45;;;;;;;1071.20;978.97;;;3.60;99.90;;;;;;5068499;28;20453;-60
2023/01/29 03:20:17;;;;;;;1043.32;956.13;;;3.60;99.90;;;;;;5070077;28;20398;-59
2023/01/29 03:22:49;;;;;;;1043.05;954.72;;;3.60;99.90;;;;;;5071775;28;20399;-60
2023/01/29 03:33:43;;;;;;;1096.20;998.25;;;3.70;99.90;;;;;;5074789;28;20379;-58
2023/01/29 03:36:15;;;;;;;1090.15;992.90;;;3.70;99.90;;;;;;5073350;28;20476;-60
2023/01/29 03:38:42;;;;;;;1109.07;999.90;;;3.70;99.90;;;;;;5073299;28;20384;-59
2023/01/29 03:41:30;;;;;;;1110.65;999.90;;;3.70;99.90;;;;;;5072914;28;20410;-59
2023/01/29 03:44:07;;;;;;;1087.07;991.03;;;3.70;99.90;;;;;;5073437;28;20802;-60
2023/01/29 03:47:17;;;;;;;1089.20;993.25;;;3.70;99.90;;;;;;5073852;28;20811;-59
2023/01/29 03:50:00;;;;;;;1106.85;999.90;;;3.70;99.90;;;;;;5069567;28;20402;-60
2023/01/29 03:52:55;;;;;;;1089.22;992.00;;;3.70;99.90;;;;;;5074213;28;20426;-59
2023/01/29 03:55:45;;;;;;;1088.22;989.13;;;3.70;99.90;;;;;;5072247;28;20380;-60
2023/01/29 03:58:25;;;;;;;1071.75;979.30;;;3.70;99.90;;;;;;5073618;28;20398;-61
2023/01/29 04:01:21;;;;;;;1097.65;998.40;;;3.70;99.90;;;;;;5073700;28;20388;-60
2023/01/29 04:03:51;;;;;;;1107.00;999.90;;;3.70;99.90;;;;;;5074222;28;20430;-60
2023/01/29 04:06:28;;;;;;;1097.78;999.75;;;3.70;99.90;;;;;;5074296;28;20715;-59
2023/01/29 04:09:31;;;;;;;1099.13;999.90;;;3.80;99.90;;;;;;5075661;28;20376;-60
2023/01/29 04:12:06;;;;;;;1103.78;999.90;;;3.70;99.90;;;;;;5036335;28;20390;-60
2023/01/29 04:14:32;;;;;;;1073.45;980.25;;;3.80;99.90;;;;;;5074675;28;20388;-59
2023/01/29 04:17:01;;;;;;;1094.82;999.60;;;3.80;99.90;;;;;;5076214;28;20410;-59
2023/01/29 04:19:27;;;;;;;1063.25;972.55;;;3.80;99.90;;;;;;5075570;28;20479;-59
2023/01/29 04:22:05;;;;;;;1036.53;950.03;;;3.70;99.90;;;;;;5075871;28;20403;-59
2023/01/29 04:24:32;;;;;;;1014.53;929.15;;;3.70;99.90;;;;;;5073598;28;20376;-60
2023/01/29 04:27:28;;;;;;;989.67;909.95;;;3.60;99.90;;;;;;5056704;28;20399;-58
2023/01/29 04:30:20;;;;;;;988.03;907.72;;;3.60;99.90;;;;;;5073279;28;20502;-59
2023/01/29 04:33:23;;;;;;;1002.50;919.08;;;3.60;99.90;;;;;;5073661;28;20387;-59
2023/01/29 04:35:58;;;;;;;995.57;913.77;;;3.60;99.90;;;;;;5072973;28;20447;-60
2023/01/29 04:38:52;;;;;;;981.90;902.90;;;3.60;99.90;;;;;;5073734;28;20390;-60
2023/01/29 04:41:32;;;;;;;992.30;910.63;;;3.60;99.90;;;;;;5073360;28;20658;-60
2023/01/29 04:44:30;;;;;;;991.38;911.15;;;3.60;99.90;;;;;;5072814;28;20846;-60
2023/01/29 04:47:20;;;;;;;1022.95;936.97;;;3.60;99.90;;;;;;5055551;28;20827;-58
2023/01/29 04:50:04;;;;;;;1014.47;929.83;;;3.60;99.90;;;;;;5074235;28;20426;-60
2023/01/29 04:52:34;;;;;;;1007.33;922.33;;;3.60;99.90;;;;;;5070174;28;20380;-60
2023/01/29 04:55:06;;;;;;;1028.38;941.75;;;3.70;99.90;;;;;;5071242;28;20383;-61
2023/01/29 04:57:41;;;;;;;1026.65;940.55;;;3.60;99.90;;;;;;5070961;28;20780;-60
2023/01/29 05:00:12;;;;;;;1053.05;964.83;;;3.60;99.90;;;;;;5070240;28;20418;-60
2023/01/29 05:02:39;;;;;;;1062.32;971.10;;;3.60;99.90;;;;;;5069661;28;20385;-60
2023/01/29 05:05:07;;;;;;;1068.43;973.72;;;3.60;99.90;;;;;;5071104;28;20418;-60
2023/01/29 05:07:36;;;;;;;1077.50;981.72;;;3.60;99.90;;;;;;5071750;28;20395;-60
2023/01/29 05:10:03;;;;;;;1031.82;946.25;;;3.60;99.90;;;;;;5072984;28;20376;-60
2023/01/29 05:12:30;;;;;;;1022.67;937.10;;;3.50;99.90;;;;;;5071580;28;20407;-60
2023/01/29 05:14:59;;;;;;;973.20;895.60;;;3.50;99.90;;;;;;5071816;28;20387;-60
2023/01/29 05:17:25;;;;;;;972.97;895.95;;;3.40;99.90;;;;;;5072344;28;20723;-60
2023/01/29 05:19:51;;;;;;;961.53;885.22;;;3.50;99.90;;;;;;5072300;28;20886;-60
2023/01/29 05:22:21;;;;;;;991.33;913.53;;;3.50;99.90;;;;;;5072167;28;20383;-63
2023/01/29 05:24:47;;;;;;;994.95;915.83;;;3.50;99.90;;;;;;5072352;28;20787;-60
2023/01/29 05:30:05;;;;;;;958.95;883.85;;;3.50;99.90;;;;;;5074482;28;20403;-59
2023/01/29 05:32:30;;;;;;;1000.00;920.40;;;3.40;99.90;;;;;;5073668;28;20391;-60
2023/01/29 05:34:56;;;;;;;992.53;912.20;;;3.40;99.90;;;;;;5073515;28;20676;-60
2023/01/29 05:37:21;;;;;;;960.93;884.63;;;3.40;99.90;;;;;;5074134;28;20765;-60
2023/01/29 05:39:47;;;;;;;982.70;903.53;;;3.40;99.90;;;;;;5072475;28;20445;-60
2023/01/29 05:42:12;;;;;;;981.28;903.10;;;3.30;99.90;;;;;;5073316;28;20388;-60
2023/01/29 05:44:38;;;;;;;966.30;889.67;;;3.30;99.90;;;;;;5071380;28;20465;-60
2023/01/29 05:47:03;;;;;;;986.00;909.47;;;3.30;99.90;;;;;;5070815;28;20488;-60
2023/01/29 05:49:29;;;;;;;996.30;915.28;;;3.30;99.90;;;;;;5071497;28;20468;-60
2023/01/29 05:51:55;;;;;;;964.58;888.55;;;3.30;99.90;;;;;;5071142;28;20388;-60
2023/01/29 05:54:20;;;;;;;998.80;918.33;;;3.30;99.90;;;;;;5070822;28;20423;-60
2023/01/29 05:56:46;;;;;;;990.20;907.77;;;3.30;99.90;;;;;;5069640;28;20395;-60
2023/01/29 05:59:12;;;;;;;1002.07;918.50;;;3.30;99.90;;;;;;5067057;28;20415;-60
2023/01/29 06:01:37;;;;;;;1027.65;943.38;;;3.40;99.90;;;;;;5068262;28;20429;-60
2023/01/29 06:04:03;;;;;;;1048.97;958.27;;;3.40;99.90;;;;;;5071226;28;20395;-60
2023/01/29 06:06:28;;;;;;;1076.07;983.00;;;3.40;99.90;;;;;;5071601;28;20443;-59
2023/01/29 06:08:54;;;;;;;1080.77;986.43;;;3.40;99.90;;;;;;5069342;28;20490;-60
2023/01/29 06:11:20;;;;;;;1031.72;945.20;;;3.40;99.90;;;;;;5069702;28;20730;-60
2023/01/29 06:13:46;;;;;;;1031.47;946.97;;;3.40;99.90;;;;;;5070996;28;20376;-60
2023/01/29 06:16:12;;;;;;;1021.30;937.38;;;3.40;99.90;;;;;;5070167;28;20810;-59
2023/01/29 06:18:39;;;;;;;1013.57;932.40;;;3.40;99.90;;;;;;5067299;28;20638;-60
2023/01/29 06:21:06;;;;;;;1015.97;932.92;;;3.30;99.90;;;;;;5067851;28;20394;-59
2023/01/29 06:23:32;;;;;;;996.35;915.53;;;3.30;99.90;;;;;;5068618;28;20398;-60
2023/01/29 06:26:03;;;;;;;1014.78;931.95;;;3.30;99.90;;;;;;5069758;28;20399;-59
2023/01/29 06:28:29;;;;;;;1004.25;923.58;;;3.30;99.90;;;;;;5069035;28;20557;-60
2023/01/29 06:30:59;;;;;;;1001.30;922.38;;;3.40;99.90;;;;;;5070162;28;20400;-60
2023/01/29 06:33:25;;;;;;;994.63;916.33;;;3.40;99.90;;;;;;5072289;28;20394;-60
2023/01/29 06:35:58;;;;;;;952.60;880.45;;;3.50;99.90;;;;;;5073569;28;20479;-60
2023/01/29 06:38:24;;;;;;;928.08;859.33;;;3.50;99.90;;;;;;5074255;28;20422;-60
2023/01/29 06:40:50;;;;;;;917.42;851.10;;;3.50;99.90;;;;;;5074363;28;20733;-60
2023/01/29 06:43:16;;;;;;;919.25;852.30;;;3.40;99.90;;;;;;5073350;28;21038;-60
2023/01/29 06:45:53;;;;;;;917.22;850.00;;;3.40;99.90;;;;;;5072899;28;20419;-60
2023/01/29 06:48:19;;;;;;;864.10;803.83;;;3.50;99.90;;;;;;5072734;28;20404;-59
2023/01/29 06:50:46;;;;;;;852.38;794.58;;;3.50;99.90;;;;;;5073603;28;20490;-60
2023/01/29 06:53:12;;;;;;;846.33;788.22;;;3.50;99.90;;;;;;5073228;28;20384;-62
2023/01/29 06:55:38;;;;;;;863.03;802.55;;;3.50;99.90;;;;;;5072522;28;20822;-59
2023/01/29 06:58:08;;;;;;;866.95;805.60;;;3.40;99.90;;;;;;5073407;28;20383;-59
2023/01/29 07:00:34;;;;;;;849.78;791.30;;;3.40;99.90;;;;;;5074034;28;20414;-60
2023/01/29 07:03:00;;;;;;;850.17;792.25;;;3.40;99.90;;;;;;5074621;28;20427;-60
2023/01/29 07:05:25;;;;;;;825.30;769.90;;;3.50;99.90;;;;;;5072934;28;20732;-58
2023/01/29 07:07:51;;;;;;;764.97;715.17;;;3.50;99.90;;;;;;5071637;28;20708;-60
2023/01/29 07:10:16;;;;;;;725.93;679.80;;;3.50;99.90;;;;;;5072373;28;20383;-60
2023/01/29 07:12:42;;;;;;;710.63;666.15;;;3.50;99.90;;;;;;5071739;28;20375;-58
2023/01/29 07:15:08;;;;;;;708.97;664.60;;;3.40;99.90;;;;;;5071780;28;20445;-59
2023/01/29 07:17:34;;;;;;;742.78;694.78;;;3.50;99.90;;;;;;5071039;28;20409;-60
2023/01/29 07:19:59;;;;;;;686.63;644.50;;;3.50;99.90;;;;;;5070487;28;20437;-60
2023/01/29 07:22:25;;;;;;;631.70;594.92;;;3.50;99.90;;;;;;5070402;28;20402;-60
2023/01/29 07:24:50;;;;;;;638.53;600.53;;;3.60;99.90;;;;;;5071578;28;20391;-60
2023/01/29 07:27:16;;;;;;;515.00;486.97;;;3.60;99.90;;;;;;5072760;28;20450;-60
2023/01/29 07:29:41;;;;;;;463.42;439.00;;;3.60;99.90;;;;;;5071339;28;20479;-61
2023/01/29 07:32:07;;;;;;;457.45;433.42;;;3.60;99.90;;;;;;5073498;28;20395;-61
2023/01/29 07:34:32;;;;;;;444.87;421.67;;;3.60;99.90;;;;;;5073271;28;20402;-61
2023/01/29 07:36:58;;;;;;;490.57;464.40;;;3.60;99.90;;;;;;5073759;28;20398;-61
2023/01/29 07:39:24;;;;;;;618.20;582.20;;;3.50;99.90;;;;;;5074966;28;20402;-61
2023/01/29 07:41:50;;;;;;;652.88;613.88;;;3.50;99.90;;;;;;5054513;28;20384;-61
2023/01/29 07:44:15;;;;;;;713.25;667.88;;;3.50;99.90;;;;;;5068588;28;20408;-59
2023/01/29 07:46:41;;;;;;;671.95;630.05;;;3.40;99.90;;;;;;5070851;28;20418;-61
2023/01/29 07:49:07;;;;;;;689.85;647.00;;;3.50;99.90;;;;;;5070765;28;20400;-61
2023/01/29 07:51:32;;;;;;;673.83;632.17;;;3.50;99.90;;;;;;5069460;28;20388;-61
2023/01/29 07:53:58;;;;;;;644.40;605.63;;;3.50;99.90;;;;;;5068639;28;20660;-60
2023/01/29 07:56:23;;;;;;;621.60;585.57;;;3.50;99.90;;;;;;5068245;28;21009;-59
2023/01/29 07:58:49;;;;;;;704.63;660.33;;;3.50;99.90;;;;;;5068559;28;20811;-60
2023/01/29 08:01:14;;;;;;;694.97;651.50;;;3.40;99.90;;;;;;5068952;28;20402;-58
2023/01/29 08:03:40;;;;;;;637.13;598.60;;;3.40;99.90;;;;;;5068858;28;20388;-60
2023/01/29 08:06:06;;;;;;;705.40;661.23;;;3.40;99.90;;;;;;5068938;28;20554;-62
2023/01/29 08:08:32;;;;;;;594.70;560.43;;;3.50;99.90;;;;;;5066525;28;20408;-61
2023/01/29 08:11:01;;;;;;;591.03;557.10;;;3.40;99.90;;;;;;5067126;28;20480;-60
2023/01/29 08:13:27;;;;;;;709.15;664.15;;;3.40;99.90;;;;;;5067391;28;20426;-60
2023/01/29 08:15:52;;;;;;;718.60;673.63;;;3.40;99.90;;;;;;5066923;28;20423;-61
2023/01/29 08:18:18;;;;;;;709.10;663.47;;;3.40;99.90;;;;;;5066624;28;20395;-60
2023/01/29 08:20:43;;;;;;;746.03;697.50;;;3.40;99.90;;;;;;5063771;28;20425;-59
2023/01/29 08:23:14;;;;;;;729.88;682.40;;;3.40;99.90;;;;;;5063146;28;20420;-60
2023/01/29 08:25:40;;;;;;;729.50;682.50;;;3.50;99.90;;;;;;5064626;28;20434;-60
2023/01/29 08:28:05;;;;;;;756.78;707.42;;;3.40;99.90;;;;;;5064759;28;20368;-58
2023/01/29 08:30:33;;;;;;;778.65;726.10;;;3.40;99.90;;;;;;5063071;28;20427;-60
2023/01/29 08:32:59;;;;;;;798.65;744.45;;;3.40;99.90;;;;;;5062390;28;20612;-58
2023/01/29 08:35:24;;;;;;;818.33;761.93;;;3.40;99.90;;;;;;5059576;28;20453;-61
2023/01/29 08:38:02;;;;;;;828.63;772.80;;;3.40;99.90;;;;;;5061147;28;20649;-61
2023/01/29 08:40:32;;;;;;;882.50;819.33;;;3.40;99.90;;;;;;5060630;28;20859;-59
2023/01/29 08:43:00;;;;;;;894.53;829.85;;;3.40;99.90;;;;;;5062022;28;20389;-60
2023/01/29 08:45:25;;;;;;;927.45;857.97;;;3.30;99.90;;;;;;5061669;28;20530;-60
2023/01/29 08:47:51;;;;;;;933.03;861.83;;;3.30;99.90;;;;;;5059669;28;20415;-59
2023/01/29 08:50:17;;;;;;;906.38;838.75;;;3.40;99.90;;;;;;5062900;28;20945;-59
2023/01/29 08:52:43;;;;;;;908.28;841.70;;;3.40;99.90;;;;;;5065406;28;20687;-60
2023/01/29 08:55:09;;;;;;;925.25;855.60;;;3.40;99.90;;;;;;5064514;28;20392;-60
2023/01/29 08:57:35;;;;;;;912.08;843.90;;;3.50;99.90;;;;;;5062942;28;20392;-60
2023/01/29 09:00:01;;;;;;;923.88;853.60;;;3.40;99.90;;;;;;5061219;28;20425;-59
2023/01/29 09:02:27;;;;;;;929.40;859.58;;;3.40;99.90;;;;;;5059877;28;20702;-60
2023/01/29 09:04:52;;;;;;;941.75;871.00;;;3.50;99.90;;;;;;5060662;28;20470;-59
2023/01/29 09:07:20;;;;;;;946.93;874.87;;;3.40;99.90;;;;;;5058563;28;20415;-60
2023/01/29 09:09:46;;;;;;;946.45;872.97;;;3.40;99.90;;;;;;5058586;28;20616;-60
2023/01/29 09:12:11;;;;;;;971.33;894.63;;;3.40;99.90;;;;;;5058169;28;20431;-59
2023/01/29 09:14:37;;;;;;;1003.07;921.63;;;3.40;99.90;;;;;;5054961;28;20717;-60
2023/01/29 09:17:02;;;;;;;984.93;905.00;;;3.40;99.90;;;;;;5057187;28;20482;-60
2023/01/29 09:19:28;;;;;;;1013.15;930.17;;;3.40;99.90;;;;;;5057754;28;20411;-60
2023/01/29 09:21:54;;;;;;;975.35;894.83;;;3.40;99.90;;;;;;5055138;28;20708;-60
2023/01/29 09:24:19;;;;;;;973.63;894.63;;;3.40;99.90;;;;;;5056708;28;20376;-60
2023/01/29 09:26:45;;;;;;;971.50;892.23;;;3.40;99.90;;;;;;5058055;28;20408;-60
2023/01/29 09:29:10;;;;;;;955.67;879.47;;;3.50;99.90;;;;;;5060958;28;20392;-60
2023/01/29 09:31:36;;;;;;;965.08;888.15;;;3.50;99.90;;;;;;5062080;28;20403;-60
2023/01/29 09:34:02;;;;;;;971.38;894.80;;;3.50;99.90;;;;;;5062449;28;20545;-58
2023/01/29 09:36:27;;;;;;;988.67;909.25;;;3.50;99.90;;;;;;5062033;28;20732;-60
2023/01/29 09:38:53;;;;;;;971.03;895.08;;;3.50;99.90;;;;;;5065502;28;20395;-58
2023/01/29 09:41:42;;;;;;;958.30;883.60;;;3.70;99.90;;;;;;5064805;28;20384;-60
2023/01/29 09:44:26;;;;;;;956.03;879.90;;;3.70;99.90;;;;;;5029424;28;20399;-60
2023/01/29 09:46:54;;;;;;;954.17;879.40;;;3.60;99.90;;;;;;5065309;28;20480;-60
2023/01/29 09:49:30;;;;;;;957.30;882.10;;;3.70;99.90;;;;;;5063923;28;20506;-60
2023/01/29 09:52:12;;;;;;;990.05;910.90;;;3.70;99.90;;;;;;5062451;28;20815;-60
2023/01/29 09:55:01;;;;;;;959.25;883.92;;;3.70;99.90;;;;;;5063705;28;20388;-60
2023/01/29 09:57:47;;;;;;;1012.03;930.55;;;3.70;99.90;;;;;;5062930;28;20394;-60
2023/01/29 10:00:19;;;;;;;950.63;878.07;;;3.70;99.90;;;;;;5064094;28;20498;-58
2023/01/29 10:03:09;;;;;;;919.30;852.50;;;3.60;99.90;;;;;;5064719;28;20508;-60
2023/01/29 10:05:41;;;;;;;940.53;872.28;;;3.60;99.90;;;;;;5067439;28;20759;-60
2023/01/29 10:08:25;;;;;;;949.25;880.42;;;3.60;99.90;;;;;;5064701;28;20384;-60
2023/01/29 10:11:08;;;;;;;925.90;858.40;;;3.60;99.90;;;;;;5066019;28;20452;-60
2023/01/29 10:13:49;;;;;;;960.00;888.28;;;3.70;99.90;;;;;;5063869;28;20441;-63
2023/01/29 10:16:52;;;;;;;940.78;871.65;;;3.70;99.90;;;;;;5063675;28;20423;-59
2023/01/29 10:19:50;;;;;;;985.47;909.97;;;3.60;99.90;;;;;;5060262;28;20459;-58
2023/01/29 10:22:35;;;;;;;1011.72;932.90;;;3.60;99.90;;;;;;5062891;28;20390;-60
2023/01/29 10:25:12;;;;;;;987.30;912.23;;;3.60;99.90;;;;;;5065365;28;20376;-60
2023/01/29 10:27:43;;;;;;;982.75;908.65;;;3.60;99.90;;;;;;5062924;28;20626;-60
2023/01/29 10:30:52;;;;;;;985.73;910.33;;;3.60;99.90;;;;;;5065607;28;20392;-60
2023/01/29 10:33:28;;;;;;;991.75;914.65;;;3.60;99.90;;;;;;5021811;28;20391;-60
2023/01/29 10:36:01;;;;;;;974.38;901.03;;;3.60;99.90;;;;;;5066096;28;20468;-60
2023/01/29 10:38:50;;;;;;;958.78;887.42;;;3.60;99.90;;;;;;5065137;28;20375;-60
2023/01/29 10:41:27;;;;;;;952.77;882.40;;;3.70;99.90;;;;;;5068721;28;20464;-61
2023/01/29 10:44:10;;;;;;;946.83;875.30;;;3.70;99.90;;;;;;5073393;28;20383;-60
2023/01/29 10:47:06;;;;;;;955.13;884.47;;;3.70;99.90;;;;;;5072160;28;20988;-60
2023/01/29 10:49:47;;;;;;;930.75;862.92;;;3.70;99.90;;;;;;5071432;28;20435;-59
2023/01/29 10:52:48;;;;;;;935.85;865.72;;;3.70;99.90;;;;;;5069111;28;20450;-60
2023/01/29 10:55:42;;;;;;;935.33;863.35;;;3.80;99.90;;;;;;5070203;28;20398;-60
2023/01/29 10:58:24;;;;;;;926.45;858.30;;;3.90;99.90;;;;;;5031641;28;20426;-60
2023/01/29 11:00:51;;;;;;;894.50;828.75;;;3.80;99.90;;;;;;5030342;28;20460;-61
2023/01/29 11:03:22;;;;;;;920.65;852.83;;;3.80;99.90;;;;;;5029400;28;20387;-60
2023/01/29 11:06:08;;;;;;;936.50;866.15;;;3.80;99.90;;;;;;5030989;28;20407;-60
2023/01/29 11:08:44;;;;;;;918.83;849.90;;;3.90;99.90;;;;;;5032984;28;20464;-60
2023/01/29 11:11:20;;;;;;;923.90;853.33;;;3.90;99.90;;;;;;5030462;28;20435;-60
2023/01/29 11:13:56;;;;;;;945.20;874.97;;;3.90;99.90;;;;;;5030160;28;20482;-60
2023/01/29 11:16:22;;;;;;;950.15;876.17;;;4.00;99.90;;;;;;5028758;28;20391;-60
2023/01/29 11:18:56;;;;;;;970.63;894.75;;;4.00;99.90;;;;;;5024043;28;20830;-60
2023/01/29 11:21:24;;;;;;;964.40;885.50;;;4.00;99.90;;;;;;5020473;28;21079;-60
2023/01/29 11:24:03;;;;;;;968.58;891.33;;;4.10;99.90;;;;;;5023093;28;20987;-60
2023/01/29 11:26:32;;;;;;;971.10;892.42;;;4.10;99.90;;;;;;5026505;28;20407;-60
2023/01/29 11:28:58;;;;;;;968.67;891.03;;;4.10;99.90;;;;;;5026142;28;21052;-60
2023/01/29 11:31:35;;;;;;;987.73;907.27;;;4.10;99.90;;;;;;5022762;28;20398;-60
2023/01/29 11:34:15;;;;;;;993.40;910.00;;;4.10;99.90;;;;;;5025941;28;20399;-60
2023/01/29 11:36:40;;;;;;;991.20;911.22;;;4.10;99.90;;;;;;5026974;28;20394;-60
2023/01/29 11:39:14;;;;;;;1003.43;920.03;;;4.10;99.90;;;;;;5030064;28;20399;-60
2023/01/29 11:41:52;;;;;;;1005.47;922.47;;;4.20;99.90;;;;;;5028511;28;20449;-60
2023/01/29 11:44:41;;;;;;;1003.00;919.20;;;4.10;99.90;;;;;;5027386;28;20395;-60
2023/01/29 11:47:19;;;;;;;981.27;901.07;;;4.10;99.90;;;;;;5017013;28;20498;-60
2023/01/29 11:49:48;;;;;;;1002.78;920.80;;;4.10;99.90;;;;;;5026746;28;20399;-58
2023/01/29 11:52:17;;;;;;;983.33;904.00;;;4.10;99.90;;;;;;5027365;28;20461;-59
2023/01/29 11:54:54;;;;;;;980.50;902.97;;;4.40;99.90;;;;;;5025604;28;20422;-59
2023/01/29 11:57:26;;;;;;;985.38;906.55;;;4.50;99.90;;;;;;5026920;28;20866;-59
2023/01/29 11:59:54;;;;;;;1016.30;931.10;;;4.80;99.90;;;;;;5027020;28;20474;-59
2023/01/29 12:02:29;;;;;;;956.30;881.92;;;4.80;99.90;;;;;;5027123;28;20375;-59
2023/01/29 12:04:58;;;;;;;984.22;906.03;;;4.80;99.90;;;;;;5029898;28;20387;-59
2023/01/29 12:07:25;;;;;;;910.63;843.05;;;4.90;99.90;;;;;;5030572;28;20831;-58
2023/01/29 12:09:56;;;;;;;924.45;857.08;;;4.90;99.90;;;;;;5029719;28;20391;-58
2023/01/29 12:12:40;;;;;;;826.95;770.20;;;4.90;99.90;;;;;;5030143;28;20486;-59
2023/01/29 12:15:20;;;;;;;879.28;816.42;;;4.90;99.90;;;;;;5030235;28;20745;-58
2023/01/29 12:18:15;;;;;;;821.42;765.33;;;5.00;99.90;;;;;;5029943;28;20406;-59
2023/01/29 12:20:54;;;;;;;768.17;717.53;;;5.00;99.90;;;;;;4995288;28;20478;-58
2023/01/29 12:23:53;;;;;;;804.60;750.78;;;4.90;99.90;;;;;;5030752;28;20459;-58
2023/01/29 12:26:27;;;;;;;806.03;751.70;;;4.80;99.90;;;;;;5026192;28;20513;-60
2023/01/29 12:29:13;;;;;;;801.08;746.85;;;4.70;99.90;;;;;;5026798;28;20671;-60
2023/01/29 12:32:17;;;;;;;822.92;766.38;;;4.60;99.90;;;;;;5025788;28;21097;-59
2023/01/29 12:35:05;;;;;;;837.35;779.47;;;4.50;99.90;;;;;;5025678;28;20602;-65
2023/01/29 12:38:11;;;;;;;856.47;797.20;;;4.50;99.90;;;;;;5024193;28;20391;-60
2023/01/29 12:40:55;;;;;;;945.03;874.05;;;4.40;99.90;;;;;;5019927;28;20387;-60
2023/01/29 12:43:26;;;;;;;961.97;887.25;;;4.30;99.90;;;;;;5022937;28;21024;-59
2023/01/29 12:45:54;;;;;;;974.95;898.50;;;4.30;99.90;;;;;;5021265;28;20410;-60
2023/01/29 12:48:29;;;;;;;1010.83;925.85;;;4.20;99.90;;;;;;5020012;28;20400;-60
2023/01/29 12:51:01;;;;;;;1011.38;929.58;;;4.30;99.90;;;;;;5020650;28;20896;-60
2023/01/29 12:53:34;;;;;;;987.35;909.72;;;4.20;99.90;;;;;;5022157;28;20485;-59
2023/01/29 12:56:04;;;;;;;972.37;896.10;;;4.20;99.90;;;;;;5022473;28;20398;-60
2023/01/29 12:58:46;;;;;;;942.40;871.45;;;4.20;99.90;;;;;;5024924;28;20383;-60
2023/01/29 13:01:25;;;;;;;956.00;883.92;;;4.10;99.90;;;;;;5027159;28;20379;-60
2023/01/29 13:03:54;;;;;;;967.38;892.45;;;4.20;99.90;;;;;;5026512;28;20403;-60
2023/01/29 13:06:27;;;;;;;991.97;913.65;;;4.10;99.90;;;;;;5026123;28;20410;-60
2023/01/29 13:09:10;;;;;;;954.15;881.58;;;4.20;99.90;;;;;;5024991;28;20383;-60